createdAt,value
2018-05-24T00:01:21.678Z,19.62
2018-05-24T00:03:49.886Z,17.73
2018-05-24T00:06:18.109Z,18.05
2018-05-24T00:08:45.549Z,16.10
2018-05-24T00:11:12.993Z,14.68
2018-05-24T00:13:40.466Z,14.18
2018-05-24T00:16:07.914Z,21.23
2018-05-24T00:18:35.349Z,20.25
2018-05-24T00:21:02.798Z,19.67
2018-05-24T00:23:30.237Z,18.55
2018-05-24T00:25:58.450Z,18.55
2018-05-24T00:28:26.649Z,18.87
2018-05-24T00:30:54.857Z,19.97
2018-05-24T00:33:23.067Z,22.45
2018-05-24T00:35:50.512Z,23.80
2018-05-24T00:38:17.954Z,19.15
2018-05-24T00:40:45.406Z,25.77
2018-05-24T00:43:13.617Z,27.80
2018-05-24T00:45:41.826Z,28.60
2018-05-24T00:48:09.261Z,29.60
2018-05-24T00:50:36.710Z,22.37
2018-05-24T00:53:04.146Z,21.07
2018-05-24T00:55:40.455Z,15.45
2018-05-24T04:44:21.262Z,11.57
2018-05-24T04:46:48.698Z,12.97
2018-05-24T04:49:16.909Z,11.40
2018-05-24T04:51:45.111Z,12.30
2018-05-24T04:54:13.329Z,12.87
2018-05-24T04:59:07.766Z,11.43
2018-05-24T05:01:35.209Z,15.37
2018-05-24T05:04:02.650Z,24.63
2018-05-24T05:06:30.845Z,12.67
2018-05-24T05:08:59.066Z,13.80
2018-05-24T05:11:26.503Z,17.20
2018-05-24T05:13:53.946Z,18.10
2018-05-24T05:16:21.386Z,16.47
2018-05-24T05:18:48.838Z,11.87
2018-05-24T05:21:16.274Z,15.20
2018-05-24T05:23:43.718Z,13.40
2018-05-24T05:26:11.154Z,12.77
2018-05-24T05:28:38.598Z,13.40
2018-05-24T05:31:07.341Z,17.83
2018-05-24T05:33:34.803Z,14.55
2018-05-24T05:36:03.283Z,14.40
2018-05-24T05:38:30.709Z,14.20
2018-05-24T05:40:58.149Z,19.70
2018-05-24T05:43:26.498Z,15.38
2018-05-24T05:45:53.933Z,14.23
2018-05-24T05:48:21.389Z,17.40
2018-05-24T05:50:49.510Z,14.57
2018-05-24T05:53:16.955Z,16.53
2018-05-24T05:55:44.397Z,13.40
2018-05-24T05:58:12.606Z,16.95
2018-05-24T06:00:40.831Z,13.83
2018-05-24T06:03:08.269Z,15.17
2018-05-24T06:05:35.723Z,16.23
2018-05-24T06:08:03.175Z,13.10
2018-05-24T06:10:30.635Z,12.98
2018-05-24T06:12:58.845Z,13.05
2018-05-24T06:15:26.359Z,11.90
2018-05-24T06:17:55.530Z,13.48
2018-05-24T06:20:23.750Z,14.32
2018-05-24T06:22:51.184Z,14.13
2018-05-24T06:25:18.632Z,11.57
2018-05-24T06:27:46.078Z,15.32
2018-05-24T06:30:14.286Z,13.52
2018-05-24T06:32:41.735Z,14.68
2018-05-24T06:35:09.199Z,15.40
2018-05-24T06:37:37.397Z,14.95
2018-05-24T06:40:04.846Z,13.90
2018-05-24T06:42:33.163Z,13.25
2018-05-24T06:45:00.615Z,14.90
2018-05-24T06:47:28.065Z,12.10
2018-05-24T06:49:55.522Z,14.55
2018-05-24T06:52:23.730Z,12.18
2018-05-24T06:54:51.185Z,12.80
2018-05-24T06:57:18.641Z,12.93
2018-05-24T06:59:47.004Z,12.75
2018-05-24T07:02:14.418Z,12.93
2018-05-24T07:04:41.870Z,14.27
2018-05-24T07:07:09.306Z,14.70
2018-05-24T07:09:36.758Z,16.42
2018-05-24T07:12:04.962Z,19.67
2018-05-24T07:14:32.421Z,14.77
2018-05-24T07:16:59.861Z,15.10
2018-05-24T07:19:27.310Z,13.90
2018-05-24T07:21:55.535Z,15.73
2018-05-24T07:24:23.362Z,15.40
2018-05-24T07:26:50.802Z,18.15
2018-05-24T07:29:18.256Z,15.75
2018-05-24T07:31:46.471Z,15.65
2018-05-24T07:34:15.186Z,13.52
2018-05-24T07:36:43.383Z,16.80
2018-05-24T07:39:10.841Z,12.00
2018-05-24T07:41:39.052Z,14.70
2018-05-24T07:44:07.284Z,13.45
2018-05-24T07:46:34.729Z,13.30
2018-05-24T07:49:02.959Z,14.23
2018-05-24T07:51:30.401Z,12.80
2018-05-24T07:53:57.841Z,13.00
2018-05-24T07:56:26.194Z,12.20
2018-05-24T07:58:53.618Z,12.55
2018-05-24T08:01:21.065Z,15.43
2018-05-24T08:03:48.505Z,12.60
2018-05-24T08:06:15.953Z,13.35
2018-05-24T08:08:44.246Z,14.83
2018-05-24T08:11:12.394Z,14.25
2018-05-24T08:13:39.826Z,12.48
2018-05-24T08:16:07.275Z,12.25
2018-05-24T08:18:34.714Z,10.98
2018-05-24T08:21:02.154Z,11.32
2018-05-24T08:23:29.593Z,12.50
2018-05-24T08:25:57.046Z,12.10
2018-05-24T08:28:25.254Z,15.55
2018-05-24T08:30:53.238Z,10.87
2018-05-24T08:33:21.458Z,14.32
2018-05-24T08:35:48.909Z,12.32
2018-05-24T08:38:16.345Z,12.98
2018-05-24T08:40:43.860Z,12.18
2018-05-24T08:43:11.246Z,12.40
2018-05-24T08:45:38.694Z,11.73
2018-05-24T08:48:06.135Z,13.77
2018-05-24T08:50:34.353Z,12.50
2018-05-24T08:53:01.787Z,11.23
2018-05-24T08:55:29.241Z,11.77
2018-05-24T08:57:56.682Z,10.90
2018-05-24T09:00:24.897Z,14.15
2018-05-24T09:02:52.345Z,12.07
2018-05-24T09:05:19.802Z,11.68
2018-05-24T09:07:47.255Z,12.25
2018-05-24T09:10:14.715Z,12.80
2018-05-24T09:12:42.162Z,12.00
2018-05-24T09:15:09.614Z,13.57
2018-05-24T09:17:37.062Z,13.65
2018-05-24T09:20:04.533Z,11.90
2018-05-24T09:22:31.945Z,11.83
2018-05-24T09:24:59.397Z,12.25
2018-05-24T09:27:27.607Z,12.27
2018-05-24T09:29:55.060Z,13.00
2018-05-24T09:32:22.498Z,12.00
2018-05-24T09:34:49.955Z,12.63
2018-05-24T09:37:17.411Z,11.30
2018-05-24T09:39:44.862Z,11.27
2018-05-24T09:42:12.387Z,12.13
2018-05-24T09:44:39.779Z,15.02
2018-05-24T09:47:07.235Z,11.57
2018-05-24T09:49:36.265Z,15.88
2018-05-24T09:52:04.479Z,10.40
2018-05-24T09:54:32.683Z,10.73
2018-05-24T09:57:00.125Z,14.45
2018-05-24T09:59:27.570Z,10.27
2018-05-24T10:01:55.014Z,10.70
2018-05-24T10:04:22.458Z,10.75
2018-05-24T10:06:49.922Z,11.93
2018-05-24T10:09:17.358Z,16.60
2018-05-24T10:11:44.806Z,10.23
2018-05-24T10:14:12.249Z,11.63
2018-05-24T10:16:40.467Z,11.02
2018-05-24T10:19:07.902Z,10.70
2018-05-24T10:21:35.347Z,11.07
2018-05-24T10:24:02.799Z,13.13
2018-05-24T10:26:31.006Z,11.02
2018-05-24T10:28:59.213Z,12.80
2018-05-24T10:31:27.423Z,14.35
2018-05-24T10:33:54.870Z,12.05
2018-05-24T10:36:22.326Z,11.52
2018-05-24T10:38:49.767Z,11.85
2018-05-24T10:41:17.211Z,11.60
2018-05-24T10:43:44.645Z,11.90
2018-05-24T10:46:12.094Z,10.85
2018-05-24T10:48:41.329Z,11.57
2018-05-24T10:51:09.544Z,11.25
2018-05-24T10:53:36.986Z,13.80
2018-05-24T10:56:04.474Z,10.15
2018-05-24T10:58:31.870Z,12.73
2018-05-24T11:00:59.313Z,11.95
2018-05-24T11:03:28.113Z,10.68
2018-05-24T11:05:56.201Z,11.23
2018-05-24T11:08:23.646Z,12.07
2018-05-24T11:10:51.093Z,12.60
2018-05-24T11:13:19.038Z,13.40
2018-05-24T11:15:47.257Z,14.10
2018-05-24T11:18:15.230Z,11.40
2018-05-24T11:20:43.452Z,11.67
2018-05-24T11:23:10.893Z,11.95
2018-05-24T11:25:38.334Z,17.73
2018-05-24T11:28:05.774Z,10.70
2018-05-24T11:30:33.983Z,11.17
2018-05-24T11:33:02.182Z,14.50
2018-05-24T11:35:30.398Z,13.97
2018-05-24T11:37:58.347Z,11.90
2018-05-24T14:00:19.249Z,14.43
2018-05-24T14:02:46.702Z,13.97
2018-05-24T14:05:14.138Z,11.60
2018-05-24T14:07:41.589Z,11.90
2018-05-24T14:10:09.025Z,14.27
2018-05-24T14:12:36.481Z,9.70
2018-05-24T14:15:03.930Z,13.27
2018-05-24T14:17:32.144Z,8.63
2018-05-24T14:19:59.581Z,10.82
2018-05-24T14:22:27.021Z,8.30
2018-05-24T14:24:54.457Z,7.30
2018-05-24T14:27:21.913Z,11.20
2018-05-24T14:29:49.345Z,9.68
2018-05-24T14:32:16.788Z,9.47
2018-05-24T14:34:44.221Z,11.33
2018-05-24T14:37:11.657Z,9.50
2018-05-24T14:39:39.093Z,9.33
2018-05-24T14:42:06.536Z,7.47
2018-05-24T14:44:34.738Z,12.40
2018-05-24T14:47:02.956Z,13.53
2018-05-24T14:49:31.389Z,9.13
2018-05-24T14:51:58.835Z,9.17
2018-05-24T14:54:26.285Z,8.53
2018-05-24T14:56:53.722Z,9.20
2018-05-24T14:59:21.155Z,9.17
2018-05-24T15:01:49.373Z,9.50
2018-05-24T16:05:36.659Z,7.10
2018-05-24T16:08:04.110Z,8.43
2018-05-24T16:10:31.542Z,7.97
2018-05-24T16:12:58.990Z,10.10
2018-05-24T16:15:27.195Z,7.50
2018-05-24T16:17:55.401Z,10.45
2018-05-24T16:20:22.841Z,6.57
2018-05-24T16:22:50.294Z,8.88
2018-05-24T16:25:17.725Z,7.00
2018-05-24T16:27:45.953Z,11.20
2018-05-24T16:30:14.133Z,7.47
2018-05-24T16:32:42.350Z,7.93
2018-05-24T16:35:09.798Z,7.53
2018-05-24T16:37:37.255Z,7.10
2018-05-24T16:40:04.690Z,8.27
2018-05-24T16:42:32.134Z,7.80
2018-05-24T16:45:00.210Z,7.72
2018-05-24T16:47:27.646Z,7.62
2018-05-24T16:49:55.082Z,8.68
2018-05-24T16:52:23.353Z,6.90
2018-05-24T16:54:50.794Z,6.85
2018-05-24T16:57:19.009Z,8.05
2018-05-24T16:59:46.457Z,6.12
2018-05-24T17:02:13.896Z,7.00
2018-05-24T17:04:41.870Z,8.02
2018-05-24T17:07:09.309Z,5.62
2018-05-24T17:09:36.762Z,6.30
2018-05-24T17:12:04.206Z,7.30
2018-05-24T17:14:31.658Z,5.85
2018-05-24T17:16:59.103Z,5.70
2018-05-24T17:19:26.549Z,6.50
2018-05-24T17:21:53.987Z,5.18
2018-05-24T17:24:21.446Z,6.55
2018-05-24T17:26:48.878Z,6.00
2018-05-24T17:29:17.093Z,5.60
2018-05-24T17:31:45.390Z,8.50
2018-05-24T17:34:13.603Z,6.20
2018-05-24T17:36:41.034Z,6.32
2018-05-24T17:39:08.483Z,6.45
2018-05-24T17:41:35.930Z,7.60
2018-05-24T17:44:04.152Z,4.68
2018-05-24T17:46:31.597Z,3.90
2018-05-24T17:49:00.823Z,3.87
2018-05-24T17:51:29.021Z,2.40
2018-05-24T17:53:56.471Z,2.60
2018-05-24T17:56:23.923Z,5.20
2018-05-24T17:58:51.362Z,4.15
2018-05-24T18:01:18.816Z,2.90
2018-05-24T18:03:46.265Z,6.32
2018-05-24T18:06:13.723Z,3.03
2018-05-24T18:08:41.942Z,11.73
2018-05-24T18:11:10.184Z,6.37
2018-05-24T18:13:37.617Z,6.85
2018-05-24T18:16:05.822Z,4.40
2018-05-24T18:18:34.031Z,4.60
2018-05-24T18:21:02.340Z,3.40
2018-05-24T18:25:56.794Z,6.70
2018-05-24T18:28:24.229Z,2.73
2018-05-24T18:30:52.341Z,2.43
2018-05-24T18:33:20.551Z,2.43
2018-05-24T18:35:48.779Z,6.87
2018-05-24T18:38:16.349Z,15.35
2018-05-24T18:40:43.766Z,9.40
2018-05-24T18:43:11.218Z,3.23
2018-05-24T18:45:39.433Z,8.70
2018-05-24T18:48:06.858Z,9.30
2018-05-24T18:50:34.297Z,11.07
2018-05-24T18:53:01.743Z,5.90
2018-05-24T18:55:29.945Z,6.00
2018-05-24T18:57:58.152Z,12.03
2018-05-24T19:00:26.356Z,8.97
2018-05-24T19:02:54.566Z,10.47
2018-05-24T19:05:22.023Z,11.97
2018-05-24T19:59:23.033Z,4.13
2018-05-24T20:01:50.479Z,15.33
2018-05-24T20:04:17.926Z,2.63
2018-05-24T20:06:46.137Z,12.40
2018-05-24T20:09:13.578Z,3.77
2018-05-24T20:11:41.027Z,6.50
2018-05-24T20:14:08.465Z,3.90
2018-05-24T20:16:36.665Z,2.00
2018-05-24T20:19:04.882Z,4.80
2018-05-24T20:21:32.318Z,2.37
2018-05-24T20:23:59.763Z,3.33
2018-05-24T20:26:27.250Z,11.43
2018-05-24T20:28:55.422Z,5.70
2018-05-24T20:31:22.858Z,2.50
2018-05-24T20:33:50.309Z,2.30
2018-05-24T20:36:17.754Z,3.23
2018-05-24T20:38:45.966Z,2.80
2018-05-24T20:41:15.039Z,5.50
2018-05-24T20:43:42.490Z,6.50
2018-05-24T20:46:12.941Z,2.90
2018-05-24T20:48:41.010Z,3.57
2018-05-24T20:51:09.218Z,4.00
2018-05-24T20:53:36.650Z,2.93
2018-05-24T20:56:04.093Z,8.20
2018-05-24T20:58:31.532Z,2.40
2018-05-24T21:00:58.970Z,2.67
2018-05-24T21:03:26.397Z,4.47
2018-05-24T21:05:53.838Z,4.63
2018-05-24T21:08:21.282Z,4.87
2018-05-24T21:10:49.494Z,2.93
2018-05-24T21:13:16.927Z,4.47
2018-05-24T21:15:44.369Z,2.73
2018-05-24T21:18:11.801Z,2.83
2018-05-24T21:20:40.034Z,6.93
2018-05-24T21:25:34.461Z,3.30
2018-05-24T21:28:02.671Z,3.63
2018-05-24T21:30:30.900Z,3.10
2018-05-24T21:32:58.318Z,8.27
2018-05-24T21:35:25.761Z,8.50
2018-05-24T21:37:53.216Z,5.77
2018-05-24T21:40:21.419Z,4.90
2018-05-24T21:42:48.852Z,2.60
2018-05-24T21:45:16.298Z,3.37
2018-05-24T21:47:43.730Z,2.40
2018-05-24T21:52:38.170Z,7.03
2018-05-24T21:55:05.619Z,4.10
2018-05-24T21:57:33.053Z,2.70
2018-05-24T22:00:01.273Z,2.10
2018-05-24T22:07:23.522Z,5.90
2018-05-24T22:09:51.718Z,3.30
2018-05-24T22:49:06.529Z,2.60
2018-05-24T22:51:33.967Z,4.33
2018-05-24T22:54:01.408Z,6.77
2018-05-24T22:56:28.845Z,3.37
2018-05-24T23:03:51.059Z,5.77
2018-05-24T23:06:18.511Z,3.37
2018-05-24T23:08:45.946Z,5.80
2018-05-24T23:11:14.414Z,4.83
2018-05-24T23:13:41.829Z,3.53
2018-05-24T23:16:10.042Z,3.20
2018-05-24T23:18:38.243Z,3.97
2018-05-24T23:28:28.198Z,2.50
2018-05-24T23:30:55.655Z,3.12
2018-05-24T23:33:23.871Z,3.37
2018-05-24T23:35:51.306Z,3.17
2018-05-24T23:55:29.545Z,3.23
2018-05-24T23:57:57.755Z,3.00
